^^
Meteo Knjazevac Station Historical Data
Daily Summary for September 8, 2021 Units:  Metric    English   Both
Daily Weekly Monthly Yearly Custom
  High: Low: Average:
Temperature: 37.1 °C 13.3 °C 25 °C
Dew Point: 19.9 °C 11.7 °C 16 °C
Humidity: 91% 33% 62%
Wind Speed: 9.7km/h 0km/h 2.9km/h
Wind Gust: 16.1km/h - -
Wind- - SW
Pressure: 1017.8 hPa 1015.5 hPa -
Precipitation: 0 mm    
Historical Graphs
 
 
Tabular Data for September 8, 2021
Time Temperature Dew Point Pressure Wind Wind Speed Wind Gust Humidity Rainfall Rate (Hourly) solar Conditions
00:00 17.6 °C 13.9 °C 1016.1 hPa WSW 3.2 km/h 8 km/h 79% 0 mm 0 W/m2
00:10 17.4 °C 13.8 °C 1016.5 hPa West 3.2 km/h 4.8 km/h 79% 0 mm 0 W/m2
00:20 17.1 °C 13.6 °C 1016.5 hPa WSW 3.2 km/h 8 km/h 80% 0 mm 0 W/m2
00:30 16.8 °C 13.3 °C 1016.5 hPa SW 1.6 km/h 4.8 km/h 80% 0 mm 0 W/m2
00:40 16.5 °C 13.2 °C 1016.5 hPa West 4.8 km/h 8 km/h 81% 0 mm 0 W/m2
00:50 16.3 °C 13.1 °C 1016.5 hPa West 4.8 km/h 8 km/h 81% 0 mm 0 W/m2
01:00 16.3 °C 13.1 °C 1016.5 hPa West 4.8 km/h 8 km/h 81% 0 mm 0 W/m2
01:10 16.3 °C 13.4 °C 1016.5 hPa WNW 3.2 km/h 6.4 km/h 83% 0 mm 0 W/m2
01:20 16.3 °C 13.4 °C 1016.8 hPa WNW 3.2 km/h 9.7 km/h 83% 0 mm 0 W/m2
01:30 16.1 °C 13.2 °C 1016.8 hPa West 3.2 km/h 8 km/h 83% 0 mm 0 W/m2
01:40 16 °C 13.1 °C 1016.8 hPa Calm   8 km/h 83% 0 mm 0 W/m2
01:50 15.7 °C 12.8 °C 1016.8 hPa WSW 3.2 km/h 3.2 km/h 83% 0 mm 0 W/m2
02:00 15.3 °C 12.7 °C 1016.8 hPa West 4.8 km/h 9.7 km/h 84% 0 mm 0 W/m2
02:10 15.3 °C 12.8 °C 1016.8 hPa WNW 4.8 km/h 9.7 km/h 85% 0 mm 0 W/m2
02:20 15.3 °C 12.8 °C 1016.8 hPa West 3.2 km/h 8 km/h 85% 0 mm 0 W/m2
02:30 15.3 °C 12.8 °C 1016.8 hPa West 3.2 km/h 6.4 km/h 85% 0 mm 0 W/m2
02:40 15.1 °C 12.6 °C 1016.8 hPa West 4.8 km/h 9.7 km/h 85% 0 mm 0 W/m2
02:50 14.9 °C 12.4 °C 1016.8 hPa West 1.6 km/h 9.7 km/h 85% 0 mm 0 W/m2
03:00 14.7 °C 12.4 °C 1017.2 hPa WSW 3.2 km/h 4.8 km/h 86% 0 mm 0 W/m2
03:10 14.5 °C 12.2 °C 1016.8 hPa West 4.8 km/h 8 km/h 86% 0 mm 0 W/m2
03:20 14.4 °C 12.1 °C 1016.8 hPa West 3.2 km/h 8 km/h 86% 0 mm 0 W/m2
03:30 14.4 °C 12.4 °C 1017.2 hPa West 4.8 km/h 9.7 km/h 88% 0 mm 0 W/m2
03:40 14.4 °C 12.4 °C 1017.2 hPa West 4.8 km/h 9.7 km/h 88% 0 mm 0 W/m2
03:50 14.3 °C 12.3 °C 1016.8 hPa WSW 4.8 km/h 8 km/h 88% 0 mm 0 W/m2
04:00 14.1 °C 12.2 °C 1016.8 hPa West 3.2 km/h 8 km/h 88% 0 mm 0 W/m2
04:10 13.9 °C 12.1 °C 1017.2 hPa WSW 1.6 km/h 4.8 km/h 89% 0 mm 0 W/m2
04:20 13.8 °C 12 °C 1016.8 hPa Calm   4.8 km/h 89% 0 mm 0 W/m2
04:30 13.8 °C 12 °C 1017.2 hPa WNW 1.6 km/h 4.8 km/h 89% 0 mm 0 W/m2
04:40 13.8 °C 12 °C 1017.2 hPa NW 1.6 km/h 4.8 km/h 89% 0 mm 0 W/m2
04:50 13.8 °C 12 °C 1017.2 hPa West 1.6 km/h 4.8 km/h 89% 0 mm 0 W/m2
05:00 13.7 °C 11.9 °C 1017.2 hPa West 3.2 km/h 4.8 km/h 89% 0 mm 0 W/m2
05:10 13.7 °C 12.1 °C 1017.5 hPa WNW 1.6 km/h 8 km/h 90% 0 mm 0 W/m2
05:20 13.7 °C 11.9 °C 1017.5 hPa West 1.6 km/h 3.2 km/h 89% 0 mm 0 W/m2
05:30 13.5 °C 11.9 °C 1017.5 hPa West 3.2 km/h 4.8 km/h 90% 0 mm 5 W/m2
05:40 13.5 °C 11.9 °C 1017.5 hPa WNW 1.6 km/h 4.8 km/h 90% 0 mm 11 W/m2
05:50 13.4 °C 11.8 °C 1017.5 hPa West 1.6 km/h 3.2 km/h 90% 0 mm 19 W/m2
06:00 13.3 °C 11.7 °C 1017.8 hPa West 1.6 km/h 3.2 km/h 90% 0 mm 27 W/m2
06:10 13.3 °C 11.7 °C 1017.8 hPa West 1.6 km/h 4.8 km/h 90% 0 mm 54 W/m2
06:20 13.3 °C 11.9 °C 1017.8 hPa West 3.2 km/h 6.4 km/h 91% 0 mm 76 W/m2
06:30 13.4 °C 11.9 °C 1017.8 hPa West 4.8 km/h 8 km/h 91% 0 mm 100 W/m2
06:40 13.6 °C 12.1 °C 1017.8 hPa West 4.8 km/h 8 km/h 91% 0 mm 127 W/m2
06:50 13.9 °C 12.4 °C 1017.8 hPa West 4.8 km/h 8 km/h 91% 0 mm 155 W/m2
07:00 14.2 °C 12.7 °C 1017.8 hPa West 3.2 km/h 6.4 km/h 91% 0 mm 184 W/m2
07:10 14.4 °C 12.8 °C 1017.8 hPa NW 3.2 km/h 6.4 km/h 90% 0 mm 215 W/m2
07:20 14.8 °C 13.2 °C 1017.8 hPa West 1.6 km/h 3.2 km/h 90% 0 mm 247 W/m2
07:30 15.2 °C 13.6 °C 1017.8 hPa West 4.8 km/h 8 km/h 90% 0 mm 280 W/m2
07:40 15.7 °C 13.9 °C 1017.8 hPa WNW 3.2 km/h 8 km/h 89% 0 mm 314 W/m2
07:50 16.3 °C 14.7 °C 1017.8 hPa West 1.6 km/h 6.4 km/h 90% 0 mm 349 W/m2
08:00 16.8 °C 15 °C 1017.8 hPa WSW 3.2 km/h 4.8 km/h 89% 0 mm 385 W/m2
08:10 17.4 °C 15.6 °C 1017.8 hPa West 1.6 km/h 4.8 km/h 89% 0 mm 418 W/m2
08:20 18 °C 15.9 °C 1017.8 hPa West 1.6 km/h 4.8 km/h 88% 0 mm 461 W/m2
08:30 18.6 °C 16 °C 1017.8 hPa West 1.6 km/h 4.8 km/h 85% 0 mm 498 W/m2
08:40 19.3 °C 15.9 °C 1017.8 hPa WNW 1.6 km/h 4.8 km/h 81% 0 mm 528 W/m2
08:50 20.1 °C 16.1 °C 1017.8 hPa SW 1.6 km/h 4.8 km/h 78% 0 mm 557 W/m2
09:00 21.2 °C 16.6 °C 1017.8 hPa SW 1.6 km/h 4.8 km/h 75% 0 mm 585 W/m2
09:10 22.7 °C 16.9 °C 1017.8 hPa WSW 1.6 km/h 4.8 km/h 70% 0 mm 613 W/m2
09:20 24.1 °C 17.8 °C 1017.8 hPa South 1.6 km/h 6.4 km/h 68% 0 mm 639 W/m2
09:30 25.2 °C 17.7 °C 1017.5 hPa SSW 1.6 km/h 6.4 km/h 63% 0 mm 665 W/m2
09:40 26.2 °C 17.8 °C 1017.8 hPa South 3.2 km/h 8 km/h 60% 0 mm 690 W/m2
09:50 27 °C 18.3 °C 1017.8 hPa Calm   6.4 km/h 59% 0 mm 714 W/m2
10:00 27.7 °C 18.4 °C 1017.8 hPa SSE 1.6 km/h 4.8 km/h 57% 0 mm 736 W/m2
10:10 28.4 °C 18.2 °C 1017.5 hPa Calm   4.8 km/h 54% 0 mm 758 W/m2
10:20 28.9 °C 19.5 °C 1017.5 hPa Calm   8 km/h 57% 0 mm 778 W/m2
10:30 29.4 °C 18.8 °C 1017.5 hPa NE 3.2 km/h 11.3 km/h 53% 0 mm 798 W/m2
10:40 29.7 °C 19.4 °C 1017.5 hPa North 3.2 km/h 9.7 km/h 54% 0 mm 815 W/m2
10:50 30.3 °C 19.7 °C 1017.5 hPa NNE 3.2 km/h 9.7 km/h 53% 0 mm 175 W/m2
11:00 30.6 °C 19.6 °C 1017.5 hPa NNE 1.6 km/h 9.7 km/h 52% 0 mm 847 W/m2
11:10 31.1 °C 19.1 °C 1017.2 hPa North 4.8 km/h 14.5 km/h 49% 0 mm 458 W/m2
11:20 31.4 °C 18.7 °C 1017.2 hPa NNE 3.2 km/h 12.9 km/h 47% 0 mm 873 W/m2
11:30 31.8 °C 18.4 °C 1017.2 hPa NNE 1.6 km/h 11.3 km/h 45% 0 mm 884 W/m2
11:40 32 °C 18.6 °C 1017.2 hPa North 3.2 km/h 9.7 km/h 45% 0 mm 893 W/m2
11:50 32.4 °C 18.9 °C 1017.2 hPa NE 4.8 km/h 11.3 km/h 45% 0 mm 901 W/m2
12:00 32.8 °C 18.9 °C 1017.2 hPa ENE 4.8 km/h 11.3 km/h 44% 0 mm 907 W/m2
12:10 32.9 °C 18.3 °C 1017.2 hPa North 4.8 km/h 8 km/h 42% 0 mm 912 W/m2
12:20 33.2 °C 18.9 °C 1017.2 hPa North 1.6 km/h 12.9 km/h 43% 0 mm 915 W/m2
12:30 33.6 °C 18.1 °C 1016.8 hPa NNE 3.2 km/h 11.3 km/h 40% 0 mm 916 W/m2
12:40 33.8 °C 18.3 °C 1016.8 hPa NNE 3.2 km/h 9.7 km/h 40% 0 mm 916 W/m2
12:50 34.1 °C 18.6 °C 1016.8 hPa East 8 km/h 11.3 km/h 40% 0 mm 915 W/m2
13:00 34.4 °C 18.4 °C 1016.5 hPa North 3.2 km/h 12.9 km/h 39% 0 mm 912 W/m2
13:10 34.7 °C 18.7 °C 1016.5 hPa North 4.8 km/h 12.9 km/h 39% 0 mm 907 W/m2
13:20 34.7 °C 18.3 °C 1016.5 hPa NW 8 km/h 14.5 km/h 38% 0 mm 901 W/m2
13:30 34.9 °C 18.1 °C 1016.5 hPa WSW 3.2 km/h 11.3 km/h 37% 0 mm 893 W/m2
13:40 35 °C 18.1 °C 1016.5 hPa WSW 3.2 km/h 9.7 km/h 37% 0 mm 884 W/m2
13:50 35 °C 18.1 °C 1016.5 hPa WNW 3.2 km/h 11.3 km/h 37% 0 mm 873 W/m2
14:00 35.3 °C 18.4 °C 1016.1 hPa ENE 8 km/h 14.5 km/h 37% 0 mm 860 W/m2
14:10 35.4 °C 17.6 °C 1016.1 hPa SSE 9.7 km/h 16.1 km/h 35% 0 mm 847 W/m2
14:20 35.5 °C 17.7 °C 1016.1 hPa East 3.2 km/h 9.7 km/h 35% 0 mm 831 W/m2
14:30 35.8 °C 18.8 °C 1016.1 hPa East 4.8 km/h 9.7 km/h 37% 0 mm 815 W/m2
14:40 35.8 °C 17.9 °C 1016.1 hPa SSE 8 km/h 14.5 km/h 35% 0 mm 797 W/m2
14:50 35.8 °C 17.5 °C 1016.1 hPa SSE 8 km/h 12.9 km/h 34% 0 mm 778 W/m2
15:00 35.9 °C 17.6 °C 1015.8 hPa SSW 9.7 km/h 11.3 km/h 34% 0 mm 757 W/m2
15:10 36.1 °C 18.2 °C 1015.8 hPa SSW 3.2 km/h 11.3 km/h 35% 0 mm 736 W/m2
15:20 36.4 °C 18 °C 1015.8 hPa ESE 4.8 km/h 11.3 km/h 34% 0 mm 713 W/m2
15:30 36.5 °C 18.1 °C 1015.8 hPa SE 1.6 km/h 11.3 km/h 34% 0 mm 689 W/m2
15:40 36.6 °C 18.7 °C 1015.8 hPa WSW 3.2 km/h 8 km/h 35% 0 mm 664 W/m2
15:50 36.6 °C 17.7 °C 1015.8 hPa SSW 1.6 km/h 9.7 km/h 33% 0 mm 639 W/m2
16:00 36.7 °C 18.3 °C 1015.8 hPa South 4.8 km/h 8 km/h 34% 0 mm 612 W/m2
16:10 36.7 °C 18.3 °C 1015.8 hPa SSW 1.6 km/h 8 km/h 34% 0 mm 584 W/m2
16:20 36.7 °C 18.3 °C 1015.8 hPa NW 3.2 km/h 9.7 km/h 34% 0 mm 556 W/m2
16:30 36.8 °C 17.9 °C 1015.8 hPa SW 1.6 km/h 9.7 km/h 33% 0 mm 527 W/m2
16:40 36.8 °C 18.4 °C 1015.8 hPa SE 1.6 km/h 8 km/h 34% 0 mm 497 W/m2
16:50 37 °C 18.1 °C 1015.8 hPa SW 1.6 km/h 6.4 km/h 33% 0 mm 467 W/m2
17:00 36.9 °C 18 °C 1015.8 hPa SW 1.6 km/h 8 km/h 33% 0 mm 437 W/m2
17:10 37.1 °C 18.6 °C 1015.8 hPa WSW 1.6 km/h 6.4 km/h 34% 0 mm 399 W/m2
17:20 36.8 °C 17.9 °C 1015.8 hPa WSW 3.2 km/h 4.8 km/h 33% 0 mm 365 W/m2
17:30 36.8 °C 18.4 °C 1015.8 hPa SW 3.2 km/h 8 km/h 34% 0 mm 331 W/m2
17:50 36.6 °C 17.7 °C 1015.5 hPa WNW 3.2 km/h 4.8 km/h 33% 0 mm 261 W/m2
18:00 36.5 °C 17.6 °C 1015.5 hPa WSW 1.6 km/h 4.8 km/h 33% 0 mm 228 W/m2
18:10 36.4 °C 17.6 °C 1015.5 hPa SW 3.2 km/h 4.8 km/h 33% 0 mm 199 W/m2
18:20 36.3 °C 17.4 °C 1015.5 hPa WSW 1.6 km/h 4.8 km/h 33% 0 mm 168 W/m2
18:30 36 °C 17.2 °C 1015.8 hPa SW 1.6 km/h 6.4 km/h 33% 0 mm 140 W/m2
18:40 35.8 °C 17.5 °C 1015.5 hPa SSW 1.6 km/h 3.2 km/h 34% 0 mm 111 W/m2
18:50 35.2 °C 18.7 °C 1015.8 hPa South 1.6 km/h 4.8 km/h 38% 0 mm 85 W/m2
19:00 34.7 °C 19.9 °C 1015.8 hPa Calm   3.2 km/h 42% 0 mm 62 W/m2
19:10 33.9 °C 19.9 °C 1015.8 hPa SW 1.6 km/h 3.2 km/h 44% 0 mm 42 W/m2
19:20 32.9 °C 19.4 °C 1015.8 hPa SW 1.6 km/h 4.8 km/h 45% 0 mm 26 W/m2
19:30 31.9 °C 19.2 °C 1015.8 hPa South 1.6 km/h 8 km/h 47% 0 mm 14 W/m2
19:40 31.3 °C 19.3 °C 1015.8 hPa Calm   3.2 km/h 49% 0 mm 7 W/m2
19:50 30.6 °C 19 °C 1016.1 hPa East 3.2 km/h 4.8 km/h 50% 0 mm 0 W/m2
20:00 29.8 °C 19.2 °C 1016.1 hPa SW 1.6 km/h 3.2 km/h 53% 0 mm 0 W/m2
20:10 29.2 °C 18.6 °C 1016.1 hPa SSW 3.2 km/h 6.4 km/h 53% 0 mm 0 W/m2
20:20 28.4 °C 18.2 °C 1016.5 hPa WSW 3.2 km/h 6.4 km/h 54% 0 mm 0 W/m2
20:30 27.8 °C 17.9 °C 1016.5 hPa WSW 3.2 km/h 6.4 km/h 55% 0 mm 0 W/m2
20:40 27.1 °C 17.8 °C 1016.8 hPa WSW 4.8 km/h 6.4 km/h 57% 0 mm 0 W/m2
20:50 26.5 °C 17.3 °C 1016.8 hPa WSW 3.2 km/h 8 km/h 57% 0 mm 0 W/m2
21:00 25.8 °C 16.6 °C 1017.2 hPa WSW 3.2 km/h 8 km/h 57% 0 mm 0 W/m2
21:10 25.3 °C 16.4 °C 1017.2 hPa West 4.8 km/h 9.7 km/h 58% 0 mm 0 W/m2
21:20 25 °C 15.9 °C 1017.2 hPa West 4.8 km/h 8 km/h 57% 0 mm 0 W/m2
21:30 24.6 °C 16.1 °C 1017.2 hPa West 3.2 km/h 6.4 km/h 59% 0 mm 0 W/m2
21:40 24.3 °C 16.1 °C 1017.2 hPa West 3.2 km/h 8 km/h 60% 0 mm 0 W/m2
21:50 23.9 °C 16.4 °C 1017.2 hPa WSW 1.6 km/h 3.2 km/h 63% 0 mm 0 W/m2
22:00 23.6 °C 16.2 °C 1017.2 hPa Calm   3.2 km/h 63% 0 mm 0 W/m2
22:10 23.4 °C 16.2 °C 1017.2 hPa WNW 1.6 km/h 3.2 km/h 64% 0 mm 0 W/m2
22:20 23 °C 16.1 °C 1017.2 hPa West 1.6 km/h 3.2 km/h 65% 0 mm 0 W/m2
22:30 22.8 °C 15.9 °C 1017.2 hPa Calm   4.8 km/h 65% 0 mm 0 W/m2
22:40 22.6 °C 15.7 °C 1017.2 hPa Calm   3.2 km/h 65% 0 mm 0 W/m2
22:50 22.4 °C 15.9 °C 1017.2 hPa Calm   1.6 km/h 67% 0 mm 0 W/m2
23:00 22.1 °C 15.9 °C 1017.2 hPa NW 1.6 km/h 3.2 km/h 68% 0 mm 0 W/m2
23:10 21.7 °C 15.8 °C 1017.5 hPa West 1.6 km/h 4.8 km/h 69% 0 mm 0 W/m2
23:20 21.4 °C 15.4 °C 1017.5 hPa Calm   8 km/h 69% 0 mm 0 W/m2
23:30 21.1 °C 15.4 °C 1017.5 hPa WSW 1.6 km/h 4.8 km/h 70% 0 mm 0 W/m2
23:40 20.7 °C 15.4 °C 1017.5 hPa WSW 1.6 km/h 3.2 km/h 72% 0 mm 0 W/m2
23:50 20.5 °C 15.5 °C 1017.8 hPa WNW 4.8 km/h 8 km/h 73% 0 mm 0 W/m2
Knjazevac, Serbia
Compliments of Weather Underground - 2 mb